Time;durP1;ratioP1;P1;durP2;ratioP2;P2;SDS_P1;SDS_P2;PMS_P1;PMS_P2;Temp;Humidity;BMP_temperature;BMP_pressure;BME280_temperature;BME280_humidity;BME280_pressure;Samples;Min_cycle;Max_cycle;Signal;HPM_P1;HPM_P2
2023/02/18 00:02:04;;;;;;;18.27;14.23;;;12.90;99.90;;;;;;6150666;23;20343;-74
2023/02/18 00:04:30;;;;;;;21.45;14.35;;;12.90;99.90;;;;;;6150442;23;20358;-74
2023/02/18 00:06:56;;;;;;;18.25;14.60;;;12.90;99.90;;;;;;6150246;23;20017;-74
2023/02/18 00:09:21;;;;;;;19.77;14.23;;;12.90;99.90;;;;;;6123819;23;20018;-75
2023/02/18 00:11:47;;;;;;;18.27;13.77;;;12.80;99.90;;;;;;6150293;23;20002;-74
2023/02/18 00:14:15;;;;;;;19.23;14.10;;;12.80;99.90;;;;;;6149886;23;20049;-73
2023/02/18 00:16:41;;;;;;;18.98;13.25;;;12.90;99.90;;;;;;6149070;23;20434;-74
2023/02/18 00:19:10;;;;;;;20.33;14.43;;;12.90;99.90;;;;;;6149986;23;20403;-74
2023/02/18 00:21:36;;;;;;;19.65;13.80;;;12.90;99.90;;;;;;6148731;23;20002;-74
2023/02/18 00:24:06;;;;;;;17.75;13.27;;;12.90;99.90;;;;;;6150922;23;20144;-74
2023/02/18 00:26:33;;;;;;;21.75;14.20;;;12.90;99.90;;;;;;6152150;23;20001;-74
2023/02/18 00:28:59;;;;;;;19.95;14.80;;;12.80;99.90;;;;;;6152327;23;20018;-74
2023/02/18 00:31:32;;;;;;;21.00;15.95;;;12.70;99.90;;;;;;6152178;23;20101;-74
2023/02/18 00:33:58;;;;;;;;;;;12.70;99.90;;;;;;6153270;23;20009;-74
2023/02/18 00:36:24;;;;;;;24.55;16.33;;;12.80;99.90;;;;;;6152193;23;20273;-74
2023/02/18 00:38:55;;;;;;;22.10;16.48;;;12.70;99.90;;;;;;6151696;23;20334;-74
2023/02/18 00:41:23;;;;;;;24.83;17.73;;;12.70;99.90;;;;;;6152322;23;20084;-74
2023/02/18 00:43:48;;;;;;;25.25;18.52;;;12.70;99.90;;;;;;6151882;23;20001;-74
2023/02/18 00:46:15;;;;;;;21.17;16.08;;;12.70;99.90;;;;;;6152040;23;20013;-74
2023/02/18 00:48:40;;;;;;;29.52;17.20;;;12.70;99.90;;;;;;6123472;23;20020;-74
2023/02/18 00:51:07;;;;;;;26.73;17.95;;;12.60;99.90;;;;;;6150850;23;19997;-74
2023/02/18 00:53:33;;;;;;;31.42;20.17;;;12.60;99.90;;;;;;6151937;23;20009;-74
2023/02/18 00:55:59;;;;;;;29.98;19.25;;;12.60;99.90;;;;;;6151804;23;20312;-74
2023/02/18 00:58:26;;;;;;;27.88;19.33;;;12.70;99.90;;;;;;6151778;23;20006;-74
2023/02/18 01:00:51;;;;;;;25.15;17.80;;;12.70;99.90;;;;;;6152190;23;19998;-75
2023/02/18 01:03:17;;;;;;;26.17;18.08;;;12.60;99.90;;;;;;6152591;23;20012;-74
2023/02/18 01:05:44;;;;;;;26.63;17.85;;;12.60;99.90;;;;;;6151151;23;20060;-74
2023/02/18 01:08:10;;;;;;;32.13;20.02;;;12.60;99.90;;;;;;6151087;23;20025;-75
2023/02/18 01:10:41;;;;;;;25.58;17.90;;;12.60;99.90;;;;;;6150983;23;20349;-75
2023/02/18 01:13:07;;;;;;;25.88;18.10;;;12.60;99.90;;;;;;6152101;23;20005;-74
2023/02/18 01:15:33;;;;;;;24.90;17.33;;;12.50;99.90;;;;;;6151863;23;20404;-75
2023/02/18 01:17:58;;;;;;;34.72;19.40;;;12.50;99.90;;;;;;6151818;23;20426;-74
2023/02/18 01:20:25;;;;;;;28.55;18.42;;;12.60;99.90;;;;;;6151879;23;19997;-74
2023/02/18 01:22:51;;;;;;;29.52;18.70;;;12.50;99.90;;;;;;6125408;23;20414;-74
2023/02/18 01:25:17;;;;;;;39.47;21.63;;;12.50;99.90;;;;;;6150978;23;20454;-74
2023/02/18 01:27:43;;;;;;;34.35;19.95;;;12.50;99.90;;;;;;6151944;23;20020;-74
2023/02/18 01:30:13;;;;;;;39.25;22.33;;;12.40;99.90;;;;;;6151995;23;19998;-74
2023/02/18 01:32:39;;;;;;;39.20;22.80;;;12.50;99.90;;;;;;6150129;23;20013;-74
2023/02/18 01:35:06;;;;;;;35.50;22.15;;;12.50;99.90;;;;;;6150573;23;20407;-74
2023/02/18 01:37:32;;;;;;;37.78;23.23;;;12.40;99.90;;;;;;6151829;23;20012;-74
2023/02/18 01:39:58;;;;;;;43.35;23.55;;;12.30;99.90;;;;;;6151337;23;20330;-74
2023/02/18 01:42:26;;;;;;;40.55;22.38;;;12.30;99.90;;;;;;6151821;23;20002;-73
2023/02/18 01:44:52;;;;;;;40.15;24.08;;;12.30;99.90;;;;;;6151747;23;20433;-74
2023/02/18 01:47:18;;;;;;;41.50;23.45;;;12.30;99.90;;;;;;6124359;23;20001;-74
2023/02/18 01:49:48;;;;;;;42.45;22.73;;;12.30;99.90;;;;;;6151059;23;20019;-74
2023/02/18 01:52:18;;;;;;;40.92;23.88;;;12.30;99.90;;;;;;6151688;23;20012;-74
2023/02/18 01:54:50;;;;;;;36.55;21.00;;;12.30;99.90;;;;;;6126023;23;20006;-74
2023/02/18 01:57:21;;;;;;;37.08;22.48;;;12.30;99.90;;;;;;6151490;23;20021;-74
2023/02/18 02:00:15;;;;;;;37.75;21.90;;;12.30;99.90;;;;;;6150868;23;20005;-74
2023/02/18 02:02:44;;;;;;;34.40;20.17;;;12.30;99.90;;;;;;6120224;23;20005;-74
2023/02/18 02:05:10;;;;;;;31.25;19.20;;;12.30;99.90;;;;;;6151180;23;20005;-74
2023/02/18 02:07:36;;;;;;;37.45;21.10;;;12.30;99.90;;;;;;6151361;23;20013;-74
2023/02/18 02:10:02;;;;;;;39.47;20.90;;;12.20;99.90;;;;;;6151219;23;20067;-74
2023/02/18 02:12:43;;;;;;;39.22;22.35;;;12.30;99.90;;;;;;6150177;23;20013;-74
2023/02/18 02:15:31;;;;;;;33.47;20.00;;;12.30;99.90;;;;;;6151037;23;20017;-74
2023/02/18 02:18:09;;;;;;;38.70;20.48;;;12.20;99.90;;;;;;6125122;23;20051;-74
2023/02/18 02:21:16;;;;;;;37.45;21.25;;;12.30;99.90;;;;;;6125122;23;20423;-74
2023/02/18 02:24:11;;;;;;;36.10;19.77;;;12.40;99.90;;;;;;6132682;23;20088;-74
2023/02/18 02:27:28;;;;;;;32.17;18.45;;;12.40;99.90;;;;;;6151945;23;20005;-74
2023/02/18 02:30:20;;;;;;;32.95;17.75;;;12.40;99.90;;;;;;6069712;23;20466;-73
2023/02/18 02:33:09;;;;;;;28.38;15.15;;;12.50;99.90;;;;;;6150959;23;20001;-74
2023/02/18 02:35:57;;;;;;;26.58;15.23;;;12.40;99.90;;;;;;6151290;23;20012;-73
2023/02/18 02:38:39;;;;;;;26.92;14.90;;;12.40;99.90;;;;;;6149902;23;20001;-73
2023/02/18 02:41:29;;;;;;;25.35;14.18;;;12.30;99.90;;;;;;6150555;23;20427;-74
2023/02/18 02:44:22;;;;;;;24.85;13.65;;;12.30;99.90;;;;;;6151719;23;20381;-73
2023/02/18 02:46:56;;;;;;;26.80;13.77;;;12.30;99.90;;;;;;6124008;23;20572;-74
2023/02/18 02:49:49;;;;;;;22.08;13.18;;;12.30;99.90;;;;;;6150793;23;20307;-74
2023/02/18 02:52:33;;;;;;;21.80;12.80;;;12.30;99.90;;;;;;6150810;23;20449;-74
2023/02/18 02:54:59;;;;;;;19.63;11.55;;;12.30;99.90;;;;;;6150930;23;20001;-74
2023/02/18 02:57:24;;;;;;;18.92;10.85;;;12.30;99.90;;;;;;6152021;23;20093;-74
2023/02/18 02:59:56;;;;;;;21.63;12.30;;;12.30;99.90;;;;;;6150913;23;20037;-74
2023/02/18 03:02:52;;;;;;;16.08;10.38;;;12.30;99.90;;;;;;6151222;23;20005;-73
2023/02/18 03:05:42;;;;;;;18.85;10.13;;;12.30;99.90;;;;;;6149562;23;20334;-74
2023/02/18 03:08:38;;;;;;;13.13;8.15;;;12.30;99.90;;;;;;6124205;23;20017;-73
2023/02/18 03:11:10;;;;;;;15.05;7.88;;;12.20;99.90;;;;;;6150358;23;20010;-73
2023/02/18 03:14:02;;;;;;;12.02;7.20;;;12.20;99.90;;;;;;6150408;23;20081;-74
2023/02/18 03:16:50;;;;;;;9.45;6.43;;;12.30;99.90;;;;;;6146739;23;20081;-73
2023/02/18 03:19:34;;;;;;;9.93;6.40;;;12.20;99.90;;;;;;6148887;23;20279;-73
2023/02/18 03:22:02;;;;;;;11.57;5.70;;;12.20;99.90;;;;;;6150418;23;20374;-74
2023/02/18 03:24:33;;;;;;;9.32;5.70;;;12.30;99.90;;;;;;6150021;23;20005;-74
2023/02/18 03:27:08;;;;;;;7.82;5.07;;;12.20;99.90;;;;;;6150765;23;20029;-74
2023/02/18 03:29:35;;;;;;;8.38;5.30;;;12.20;99.90;;;;;;6150246;23;20438;-74
2023/02/18 03:32:04;;;;;;;8.40;4.90;;;12.10;99.90;;;;;;6150595;23;20053;-73
2023/02/18 03:34:32;;;;;;;7.43;4.90;;;12.20;99.90;;;;;;6150221;23;20025;-74
2023/02/18 03:37:00;;;;;;;7.20;4.32;;;12.20;99.90;;;;;;6124393;23;20335;-73
2023/02/18 03:39:29;;;;;;;6.43;3.92;;;12.20;99.90;;;;;;6148511;23;20084;-74
2023/02/18 03:41:55;;;;;;;4.47;3.42;;;12.20;99.90;;;;;;6150319;23;20028;-74
2023/02/18 03:44:23;;;;;;;4.03;3.22;;;12.20;99.90;;;;;;6124400;23;20017;-74
2023/02/18 03:46:48;;;;;;;4.13;2.97;;;12.30;99.90;;;;;;6150913;23;20006;-74
2023/02/18 03:49:14;;;;;;;4.88;2.67;;;12.20;99.90;;;;;;6149841;23;20009;-74
2023/02/18 03:51:40;;;;;;;3.13;2.35;;;12.20;99.90;;;;;;6150626;23;19997;-74
2023/02/18 03:54:06;;;;;;;3.00;2.17;;;12.20;99.90;;;;;;6150485;23;20013;-74
2023/02/18 03:56:34;;;;;;;2.95;2.42;;;12.20;99.90;;;;;;6151193;23;20067;-74
2023/02/18 03:58:59;;;;;;;3.05;2.10;;;12.10;99.90;;;;;;6155601;23;20068;-74
2023/02/18 04:01:25;;;;;;;3.55;2.30;;;12.20;99.90;;;;;;6155465;23;20056;-74
2023/02/18 04:03:51;;;;;;;2.55;2.05;;;12.10;99.90;;;;;;6155838;23;20001;-74
2023/02/18 04:06:17;;;;;;;3.70;2.10;;;12.10;99.90;;;;;;6154343;23;20457;-74
2023/02/18 04:08:43;;;;;;;3.33;1.80;;;12.00;99.90;;;;;;6155572;23;20452;-74
2023/02/18 04:11:08;;;;;;;2.50;1.80;;;12.00;99.90;;;;;;6154672;23;20509;-73
2023/02/18 04:13:34;;;;;;;2.08;1.88;;;12.00;99.90;;;;;;6155181;23;20128;-74
2023/02/18 04:15:59;;;;;;;2.20;2.00;;;12.00;99.90;;;;;;6155683;23;20394;-73
2023/02/18 04:18:25;;;;;;;2.47;2.28;;;12.00;99.90;;;;;;6155806;23;20007;-74
2023/02/18 04:20:51;;;;;;;2.42;2.20;;;12.10;99.90;;;;;;6154392;23;20376;-74
2023/02/18 04:23:16;;;;;;;1.98;1.77;;;12.00;99.90;;;;;;6129838;23;20012;-74
2023/02/18 04:25:42;;;;;;;2.40;2.05;;;12.00;99.90;;;;;;6154603;23;20076;-74
2023/02/18 04:28:12;;;;;;;2.65;1.90;;;12.00;99.90;;;;;;6129269;23;20503;-74
2023/02/18 04:30:37;;;;;;;1.60;1.50;;;12.00;99.90;;;;;;6153777;23;19997;-73
2023/02/18 04:33:03;;;;;;;1.90;1.67;;;11.90;99.90;;;;;;6154712;23;20013;-74
2023/02/18 04:35:29;;;;;;;2.33;1.55;;;12.00;99.90;;;;;;6156282;23;20001;-74
2023/02/18 04:37:54;;;;;;;1.60;1.50;;;12.00;99.90;;;;;;6155972;23;20052;-73
2023/02/18 04:40:20;;;;;;;1.90;1.70;;;11.90;99.90;;;;;;6153934;23;20101;-74
2023/02/18 04:42:45;;;;;;;1.50;1.38;;;12.00;99.90;;;;;;6129991;23;20044;-74
2023/02/18 04:45:11;;;;;;;1.48;1.38;;;12.00;99.90;;;;;;6153751;23;20009;-73
2023/02/18 04:47:37;;;;;;;1.42;1.33;;;12.00;99.90;;;;;;6155289;23;20017;-74
2023/02/18 04:50:03;;;;;;;1.33;1.23;;;12.00;99.90;;;;;;6155944;23;20005;-73
2023/02/18 04:52:28;;;;;;;3.63;1.70;;;12.00;99.90;;;;;;6155834;23;19997;-73
2023/02/18 04:54:54;;;;;;;1.52;1.42;;;11.90;99.90;;;;;;6154296;23;20005;-74
2023/02/18 04:57:19;;;;;;;1.75;1.63;;;12.00;99.90;;;;;;6154870;23;20426;-73
2023/02/18 04:59:45;;;;;;;1.67;1.58;;;11.90;99.90;;;;;;6155971;23;20029;-73
2023/02/18 05:02:11;;;;;;;1.65;1.55;;;12.00;99.90;;;;;;6155580;23;20009;-73
2023/02/18 05:04:36;;;;;;;1.80;1.48;;;12.00;99.90;;;;;;6155739;23;20002;-74
2023/02/18 05:07:02;;;;;;;1.35;1.25;;;11.90;99.90;;;;;;6128798;23;20005;-74
2023/02/18 05:09:27;;;;;;;1.80;1.70;;;11.90;99.90;;;;;;6129918;23;20013;-73
2023/02/18 05:11:53;;;;;;;2.00;1.67;;;11.80;99.90;;;;;;6155531;23;20473;-73
2023/02/18 05:14:19;;;;;;;2.15;1.98;;;11.90;99.90;;;;;;6155819;23;20013;-73
2023/02/18 05:16:45;;;;;;;2.08;1.85;;;11.90;99.90;;;;;;6154872;23;20062;-73
2023/02/18 05:19:14;;;;;;;4.97;2.33;;;11.80;99.90;;;;;;6155521;23;20029;-73
2023/02/18 05:21:39;;;;;;;2.10;1.90;;;11.80;99.90;;;;;;6154587;23;20056;-73
2023/02/18 05:24:05;;;;;;;2.35;2.15;;;11.90;99.90;;;;;;6127377;23;20005;-73
2023/02/18 05:26:31;;;;;;;3.10;2.33;;;11.90;99.90;;;;;;6155391;23;20338;-73
2023/02/18 05:28:57;;;;;;;2.47;2.20;;;11.90;99.90;;;;;;6155428;23;20014;-73
2023/02/18 05:31:22;;;;;;;3.05;2.08;;;11.80;99.90;;;;;;6155103;23;20003;-73
2023/02/18 05:33:48;;;;;;;4.65;2.40;;;11.70;99.90;;;;;;6156445;23;20017;-73
2023/02/18 05:36:14;;;;;;;2.60;2.10;;;11.80;99.90;;;;;;6129508;23;20415;-73
2023/02/18 05:38:39;;;;;;;1.83;1.52;;;11.80;99.90;;;;;;6154953;23;20005;-73
2023/02/18 05:41:05;;;;;;;2.50;1.83;;;11.80;99.90;;;;;;6153599;23;20004;-73
2023/02/18 05:44:28;;;;;;;1.70;1.60;;;11.80;99.90;;;;;;6155889;23;20126;-72
2023/02/18 05:46:16;;;;;;;2.38;1.80;;;11.80;99.90;;;;;;6153901;23;20053;-73
2023/02/18 05:48:42;;;;;;;2.05;1.85;;;11.80;99.90;;;;;;6155333;23;20017;-73
2023/02/18 05:51:07;;;;;;;2.63;2.22;;;11.80;99.90;;;;;;6155563;23;20002;-73
2023/02/18 05:53:33;;;;;;;2.30;1.90;;;11.80;99.90;;;;;;6154509;23;20008;-73
2023/02/18 05:55:59;;;;;;;2.33;2.03;;;11.70;99.90;;;;;;6155211;23;20008;-73
2023/02/18 05:58:24;;;;;;;3.58;2.20;;;11.70;99.90;;;;;;6155795;23;20057;-73
2023/02/18 06:00:50;;;;;;;2.20;2.00;;;11.70;99.90;;;;;;6153528;23;20262;-73
2023/02/18 06:03:15;;;;;;;2.90;2.38;;;11.70;99.90;;;;;;6155327;23;20009;-73
2023/02/18 06:05:41;;;;;;;4.18;2.22;;;11.70;99.90;;;;;;6155374;23;20077;-73
2023/02/18 06:08:07;;;;;;;2.58;2.35;;;11.70;99.90;;;;;;6153504;23;20033;-73
2023/02/18 06:10:32;;;;;;;2.80;1.95;;;11.70;99.90;;;;;;6153376;23;20405;-73
2023/02/18 06:12:59;;;;;;;2.97;2.40;;;11.70;99.90;;;;;;6152638;23;20080;-73
2023/02/18 06:15:25;;;;;;;2.90;2.60;;;11.70;99.90;;;;;;6154459;23;20060;-73
2023/02/18 06:17:51;;;;;;;3.80;2.10;;;11.80;99.90;;;;;;6153958;23;20014;-73
2023/02/18 06:20:16;;;;;;;2.40;2.20;;;11.70;99.90;;;;;;6154651;23;20029;-73
2023/02/18 06:22:42;;;;;;;2.53;2.20;;;11.80;99.90;;;;;;6153008;23;20006;-73
2023/02/18 06:25:08;;;;;;;4.30;2.58;;;11.70;99.90;;;;;;6153567;23;20001;-73
2023/02/18 06:27:33;;;;;;;2.55;2.35;;;11.80;99.90;;;;;;6154282;23;20473;-73
2023/02/18 06:29:59;;;;;;;1.85;1.75;;;11.70;99.90;;;;;;6153287;23;20008;-73
2023/02/18 06:32:25;;;;;;;3.85;2.10;;;11.70;99.90;;;;;;6127830;23;20009;-73
2023/02/18 06:34:50;;;;;;;4.07;2.13;;;11.70;99.90;;;;;;6153770;23;20080;-73
2023/02/18 06:37:16;;;;;;;1.85;1.70;;;11.70;99.90;;;;;;6154574;23;20028;-73
2023/02/18 06:39:41;;;;;;;2.08;1.88;;;11.70;99.90;;;;;;6154266;23;19997;-73
2023/02/18 06:42:07;;;;;;;3.20;2.03;;;11.70;99.90;;;;;;6153254;23;20011;-73
2023/02/18 06:44:33;;;;;;;1.60;1.50;;;11.70;99.90;;;;;;6154512;23;20339;-73
2023/02/18 06:46:59;;;;;;;1.70;1.55;;;11.60;99.90;;;;;;6152741;23;20024;-73
2023/02/18 06:49:24;;;;;;;2.50;1.40;;;11.60;99.90;;;;;;6155093;23;20012;-73
2023/02/18 06:51:50;;;;;;;2.30;1.48;;;11.60;99.90;;;;;;6151950;23;20330;-73
2023/02/18 06:54:15;;;;;;;1.70;1.45;;;11.50;99.90;;;;;;6154653;23;20056;-73
2023/02/18 06:56:41;;;;;;;3.35;1.70;;;11.50;99.90;;;;;;6152735;23;20056;-73
2023/02/18 06:59:07;;;;;;;3.13;1.67;;;11.50;99.90;;;;;;6154413;23;20007;-73
2023/02/18 07:01:32;;;;;;;5.85;1.77;;;11.50;99.90;;;;;;6153711;23;20029;-73
2023/02/18 07:03:58;;;;;;;4.78;1.92;;;11.50;99.90;;;;;;6126668;23;20013;-73
2023/02/18 07:06:24;;;;;;;6.60;3.20;;;11.40;99.90;;;;;;6153631;23;20157;-73
2023/02/18 07:08:49;;;;;;;5.25;2.97;;;11.50;99.90;;;;;;6154415;23;20436;-73
2023/02/18 07:11:15;;;;;;;6.00;2.97;;;11.50;99.90;;;;;;6154521;23;20056;-73
2023/02/18 07:13:41;;;;;;;5.95;2.72;;;11.50;99.90;;;;;;6152866;23;20016;-74
2023/02/18 07:16:06;;;;;;;7.13;2.45;;;11.50;99.90;;;;;;6152485;23;20048;-74
2023/02/18 07:18:32;;;;;;;5.93;2.78;;;11.40;99.90;;;;;;6154344;23;20493;-73
2023/02/18 07:20:57;;;;;;;7.10;3.53;;;11.40;99.90;;;;;;6153075;23;20076;-73
2023/02/18 07:23:23;;;;;;;6.57;3.28;;;11.40;99.90;;;;;;6152823;23;20339;-74
2023/02/18 07:25:48;;;;;;;7.82;3.58;;;11.40;99.90;;;;;;6154135;23;20080;-74
2023/02/18 07:28:15;;;;;;;11.32;3.55;;;11.30;99.90;;;;;;6152750;23;20014;-73
2023/02/18 07:30:40;;;;;;;11.73;3.25;;;11.30;99.90;;;;;;6154944;23;20395;-74
2023/02/18 07:33:06;;;;;;;8.25;3.67;;;11.30;99.90;;;;;;6151792;23;20005;-74
2023/02/18 07:35:32;;;;;;;6.20;2.90;;;11.30;99.90;;;;;;6127245;23;20061;-73
2023/02/18 07:37:57;;;;;;;12.85;2.60;;;11.30;99.90;;;;;;6154193;23;19998;-73
2023/02/18 07:40:23;;;;;;;11.88;3.00;;;11.20;99.90;;;;;;6154691;23;20319;-73
2023/02/18 07:42:49;;;;;;;12.20;3.65;;;11.30;99.90;;;;;;6151959;23;20002;-73
2023/02/18 07:45:14;;;;;;;9.88;2.80;;;11.30;99.90;;;;;;6153772;23;20010;-73
2023/02/18 07:47:41;;;;;;;12.93;3.47;;;11.30;99.90;;;;;;6153138;23;20020;-73
2023/02/18 07:50:07;;;;;;;14.15;3.13;;;11.30;99.90;;;;;;6127859;23;20055;-73
2023/02/18 07:52:33;;;;;;;8.82;2.90;;;11.30;99.90;;;;;;6126466;23;20002;-74
2023/02/18 07:54:59;;;;;;;11.13;3.42;;;11.20;99.90;;;;;;6154427;23;20008;-73
2023/02/18 07:57:25;;;;;;;12.70;3.05;;;11.20;99.90;;;;;;6151466;23;20026;-72
2023/02/18 07:59:50;;;;;;;9.88;3.20;;;11.20;99.90;;;;;;6153387;23;20391;-73
2023/02/18 08:02:19;;;;;;;12.15;2.97;;;11.20;99.90;;;;;;6154549;23;20052;-75
2023/02/18 08:04:44;;;;;;;12.43;3.47;;;11.30;99.90;;;;;;6152618;23;20893;-74
2023/02/18 08:07:15;;;;;;;19.48;3.35;;;11.20;99.90;;;;;;6153442;23;20088;-74
2023/02/18 08:09:41;;;;;;;13.00;3.20;;;11.30;99.90;;;;;;6154208;23;20013;-74
2023/02/18 08:12:08;;;;;;;15.07;3.70;;;11.30;99.90;;;;;;6154194;23;20000;-74
2023/02/18 08:14:33;;;;;;;16.20;3.92;;;11.30;99.90;;;;;;6152519;23;20044;-74
2023/02/18 08:16:59;;;;;;;12.20;2.97;;;11.30;99.90;;;;;;6153914;23;20307;-74
2023/02/18 08:19:25;;;;;;;12.32;3.05;;;11.30;99.90;;;;;;6152876;23;20005;-74
2023/02/18 08:21:50;;;;;;;13.10;3.53;;;11.40;99.90;;;;;;6151202;23;20454;-74
2023/02/18 08:24:16;;;;;;;13.98;2.63;;;11.40;99.90;;;;;;6153452;23;20002;-74
2023/02/18 08:26:41;;;;;;;13.65;3.00;;;11.30;99.90;;;;;;6152814;23;20001;-74
2023/02/18 08:29:07;;;;;;;14.82;3.13;;;11.40;99.90;;;;;;6153831;23;20425;-74
2023/02/18 08:31:32;;;;;;;13.38;3.15;;;11.40;99.90;;;;;;6152377;23;20002;-75
2023/02/18 08:33:59;;;;;;;10.63;2.88;;;11.40;99.90;;;;;;6153821;23;20010;-74
2023/02/18 08:36:26;;;;;;;13.80;3.15;;;11.50;99.90;;;;;;6152859;23;20002;-74
2023/02/18 08:38:51;;;;;;;15.95;2.85;;;11.40;99.90;;;;;;6153370;23;20006;-75
2023/02/18 08:41:20;;;;;;;13.48;2.70;;;11.40;99.90;;;;;;6154160;23;20071;-74
2023/02/18 08:43:46;;;;;;;11.70;2.33;;;11.50;99.90;;;;;;6153123;23;20001;-74
2023/02/18 08:46:12;;;;;;;11.10;2.80;;;11.50;99.90;;;;;;6129997;23;20005;-74
2023/02/18 08:48:38;;;;;;;16.80;2.88;;;11.60;99.90;;;;;;6153989;23;20480;-74
2023/02/18 08:51:12;;;;;;;12.88;3.25;;;11.60;99.90;;;;;;6129198;23;20316;-74
2023/02/18 08:53:38;;;;;;;11.38;2.90;;;11.50;99.90;;;;;;6156071;23;20005;-74
2023/02/18 08:56:08;;;;;;;12.68;3.08;;;11.60;99.90;;;;;;6155730;23;19997;-74
2023/02/18 08:58:36;;;;;;;14.25;2.70;;;11.70;99.90;;;;;;6154473;23;20442;-74
2023/02/18 09:01:04;;;;;;;9.82;2.65;;;11.70;99.90;;;;;;6129487;23;20414;-74
2023/02/18 09:03:30;;;;;;;13.95;3.25;;;11.70;99.90;;;;;;6155128;23;20002;-74
2023/02/18 09:05:56;;;;;;;15.93;3.13;;;11.70;99.90;;;;;;6154770;23;20001;-74
2023/02/18 09:08:21;;;;;;;7.63;2.80;;;11.80;99.90;;;;;;6128489;23;20087;-75
2023/02/18 09:10:47;;;;;;;9.77;2.67;;;11.80;99.90;;;;;;6154431;23;19998;-75
2023/02/18 09:13:12;;;;;;;15.57;2.90;;;11.90;99.90;;;;;;6154036;23;20011;-75
2023/02/18 09:15:38;;;;;;;15.60;2.97;;;11.90;99.90;;;;;;6155203;23;20073;-75
2023/02/18 09:18:04;;;;;;;14.07;3.03;;;12.00;99.90;;;;;;6153909;23;20061;-75
2023/02/18 09:20:29;;;;;;;12.82;3.58;;;12.00;99.90;;;;;;6154970;23;20006;-75
2023/02/18 09:22:56;;;;;;;10.50;2.63;;;12.00;99.90;;;;;;6154535;23;20005;-75
2023/02/18 09:25:22;;;;;;;12.85;2.70;;;12.00;99.90;;;;;;6125691;23;20005;-75
2023/02/18 09:27:47;;;;;;;14.60;3.53;;;12.00;99.90;;;;;;6154959;23;20394;-75
2023/02/18 09:30:13;;;;;;;12.27;2.60;;;12.00;99.90;;;;;;6127371;23;20001;-75
2023/02/18 09:32:38;;;;;;;12.35;3.65;;;12.10;99.90;;;;;;6155633;23;20002;-75
2023/02/18 09:35:04;;;;;;;11.27;3.03;;;12.10;99.90;;;;;;6154767;23;20076;-75
2023/02/18 09:37:30;;;;;;;10.27;2.70;;;12.00;99.90;;;;;;6129885;23;20346;-75
2023/02/18 09:39:56;;;;;;;9.57;2.42;;;12.00;99.90;;;;;;6156188;23;20304;-75
2023/02/18 09:42:29;;;;;;;8.88;2.25;;;12.00;99.90;;;;;;6153441;23;20005;-75
2023/02/18 09:44:58;;;;;;;12.15;3.28;;;12.00;99.90;;;;;;6155317;23;20056;-75
2023/02/18 09:47:33;;;;;;;11.40;3.08;;;12.00;99.90;;;;;;6153541;23;20009;-75
2023/02/18 09:50:18;;;;;;;12.80;2.85;;;11.90;99.90;;;;;;6155224;23;20399;-75
2023/02/18 09:52:44;;;;;;;9.85;3.03;;;12.00;99.90;;;;;;6154467;23;20005;-74
2023/02/18 09:55:28;;;;;;;10.90;2.85;;;11.90;99.90;;;;;;6154151;23;20009;-74
2023/02/18 09:57:58;;;;;;;9.95;2.55;;;11.90;99.90;;;;;;6153530;23;20006;-74
2023/02/18 10:00:34;;;;;;;9.35;2.42;;;11.80;99.90;;;;;;6154547;23;20005;-74
2023/02/18 10:03:12;;;;;;;12.63;2.85;;;11.80;99.90;;;;;;6153725;23;20001;-74
2023/02/18 10:05:41;;;;;;;13.60;3.25;;;11.80;99.90;;;;;;6155103;23;19998;-74
2023/02/18 10:08:20;;;;;;;11.52;3.78;;;11.70;99.90;;;;;;6153037;23;20438;-74
2023/02/18 10:10:46;;;;;;;14.35;3.38;;;11.80;99.90;;;;;;6128290;23;20041;-74
2023/02/18 10:13:18;;;;;;;13.48;3.55;;;11.80;99.90;;;;;;6152984;23;20001;-74
2023/02/18 10:15:44;;;;;;;16.10;3.53;;;11.80;99.90;;;;;;6154883;23;20017;-74
2023/02/18 10:18:27;;;;;;;14.60;3.70;;;11.80;99.90;;;;;;6153527;23;20048;-74
2023/02/18 10:21:09;;;;;;;13.85;3.42;;;11.80;99.90;;;;;;6154521;23;20008;-74
2023/02/18 10:23:40;;;;;;;15.40;3.30;;;11.80;99.90;;;;;;6153773;23;20004;-74
2023/02/18 10:26:13;;;;;;;10.80;3.07;;;11.80;99.90;;;;;;6154234;23;20084;-74
2023/02/18 10:28:39;;;;;;;13.93;2.78;;;11.90;99.90;;;;;;6151911;23;20024;-74
2023/02/18 10:31:09;;;;;;;12.75;3.10;;;11.90;99.90;;;;;;6153323;23;20081;-74
2023/02/18 10:33:38;;;;;;;15.63;2.80;;;11.90;99.90;;;;;;6153567;23;20547;-74
2023/02/18 10:36:22;;;;;;;12.23;2.88;;;11.90;99.90;;;;;;6155019;23;20076;-74
2023/02/18 10:38:56;;;;;;;17.70;3.53;;;11.80;99.90;;;;;;6153633;23;20365;-74
2023/02/18 10:41:33;;;;;;;16.40;3.05;;;11.90;99.90;;;;;;6155046;23;20008;-74
2023/02/18 10:44:24;;;;;;;11.65;2.53;;;11.90;99.90;;;;;;6153019;23;20006;-74
2023/02/18 10:47:19;;;;;;;9.05;2.53;;;11.80;99.90;;;;;;6128356;23;20428;-74
2023/02/18 10:50:01;;;;;;;15.43;3.10;;;11.90;99.90;;;;;;6126203;23;20013;-74
2023/02/18 10:52:32;;;;;;;12.13;3.20;;;11.90;99.90;;;;;;6128158;23;20005;-74
2023/02/18 10:55:17;;;;;;;15.57;4.32;;;11.90;99.90;;;;;;6153891;23;20226;-73
2023/02/18 10:57:52;;;;;;;13.98;2.70;;;11.90;99.90;;;;;;6153295;23;20080;-74
2023/02/18 11:00:22;;;;;;;11.23;2.92;;;11.90;99.90;;;;;;6153767;23;20028;-74
2023/02/18 11:03:08;;;;;;;11.80;2.92;;;11.90;99.90;;;;;;6154309;23;20008;-74
2023/02/18 11:05:35;;;;;;;10.75;3.38;;;12.00;99.90;;;;;;6154403;23;20005;-74
2023/02/18 11:08:05;;;;;;;16.98;3.47;;;11.90;99.90;;;;;;6152929;23;20013;-74
2023/02/18 11:10:37;;;;;;;13.85;3.40;;;12.00;99.90;;;;;;6153756;23;20005;-74
2023/02/18 11:13:05;;;;;;;12.55;4.78;;;11.90;99.90;;;;;;6152520;23;20016;-74
2023/02/18 11:15:31;;;;;;;14.13;3.58;;;11.90;99.90;;;;;;6154204;23;20023;-74
2023/02/18 11:18:12;;;;;;;11.52;3.65;;;11.90;99.90;;;;;;6154383;23;20025;-74
2023/02/18 11:20:38;;;;;;;10.63;3.35;;;12.00;99.90;;;;;;6153476;23;20328;-74
2023/02/18 11:23:07;;;;;;;13.60;3.70;;;12.10;99.90;;;;;;6127102;23;20053;-74
2023/02/18 11:25:40;;;;;;;12.40;3.65;;;12.10;99.90;;;;;;6153626;23;19997;-74
2023/02/18 11:28:26;;;;;;;16.67;3.92;;;12.00;99.90;;;;;;6153409;23;20009;-74
2023/02/18 11:30:59;;;;;;;9.48;3.80;;;12.10;99.90;;;;;;6101991;23;20093;-74
2023/02/18 11:33:40;;;;;;;10.00;3.95;;;12.00;99.90;;;;;;6121960;23;20013;-74
2023/02/18 11:36:26;;;;;;;16.45;4.25;;;12.00;99.90;;;;;;6149438;23;20006;-74
2023/02/18 11:39:11;;;;;;;13.10;4.35;;;12.00;99.90;;;;;;6151992;23;20010;-75
2023/02/18 11:41:43;;;;;;;12.82;4.50;;;12.10;99.90;;;;;;6153440;23;20419;-74
2023/02/18 11:44:41;;;;;;;13.95;4.57;;;12.10;99.90;;;;;;6153091;23;20084;-76
2023/02/18 11:47:13;;;;;;;11.20;4.10;;;12.20;99.90;;;;;;6153602;23;20001;-75
2023/02/18 11:49:41;;;;;;;11.50;3.90;;;12.10;99.90;;;;;;6124354;23;20104;-75
2023/02/18 11:52:24;;;;;;;10.50;3.92;;;12.20;99.90;;;;;;6152857;23;20001;-74
2023/02/18 11:55:23;;;;;;;15.13;4.25;;;12.20;99.90;;;;;;6126378;23;20006;-74
2023/02/18 11:58:01;;;;;;;12.32;4.18;;;12.20;99.90;;;;;;6153444;23;20032;-75
2023/02/18 12:00:46;;;;;;;10.73;4.88;;;12.30;99.90;;;;;;6152142;23;20005;-75
2023/02/18 12:03:34;;;;;;;15.20;4.65;;;12.20;99.90;;;;;;6127372;23;20456;-75
2023/02/18 12:06:04;;;;;;;11.30;3.72;;;12.20;99.90;;;;;;6153510;23;20013;-75
2023/02/18 12:08:38;;;;;;;10.07;4.38;;;12.20;99.90;;;;;;6153385;23;20036;-74
2023/02/18 12:11:11;;;;;;;15.70;4.90;;;12.20;99.90;;;;;;6128018;23;20008;-73
2023/02/18 12:13:46;;;;;;;16.23;5.65;;;12.20;99.90;;;;;;6154143;23;20005;-75
2023/02/18 12:16:27;;;;;;;11.65;4.90;;;12.30;99.90;;;;;;6153473;23;20443;-73
2023/02/18 12:19:30;;;;;;;20.77;6.57;;;12.30;99.90;;;;;;6153150;23;20001;-73
2023/02/18 12:22:00;;;;;;;;;;;12.40;99.90;;;;;;6129658;23;20423;-74
2023/02/18 12:24:32;;;;;;;16.05;6.70;;;12.30;99.90;;;;;;6126078;23;19912;-74
2023/02/18 12:27:19;;;;;;;15.70;6.60;;;12.40;99.90;;;;;;6129444;23;20005;-74
2023/02/18 12:29:54;;;;;;;17.38;7.93;;;12.40;99.90;;;;;;6128377;23;20053;-75
2023/02/18 12:32:41;;;;;;;15.20;7.88;;;12.30;99.90;;;;;;6155293;23;20010;-74
2023/02/18 12:35:31;;;;;;;23.10;8.43;;;12.30;99.90;;;;;;6127910;23;20441;-75
2023/02/18 12:38:16;;;;;;;15.80;8.43;;;12.30;99.90;;;;;;6154995;23;19998;-75
2023/02/18 12:40:41;;;;;;;17.02;10.25;;;12.40;99.90;;;;;;6155708;23;20089;-75
2023/02/18 12:43:19;;;;;;;19.60;9.38;;;12.30;99.90;;;;;;6156055;23;20025;-76
2023/02/18 12:46:12;;;;;;;19.02;9.48;;;12.40;99.90;;;;;;6153509;23;20346;-74
2023/02/18 12:48:51;;;;;;;18.90;10.77;;;12.40;99.90;;;;;;6129274;23;20010;-74
2023/02/18 12:51:39;;;;;;;23.17;10.80;;;12.40;99.90;;;;;;6153856;23;20044;-74
2023/02/18 12:54:17;;;;;;;16.75;10.88;;;12.40;99.90;;;;;;6151960;23;20334;-74
2023/02/18 12:57:18;;;;;;;22.20;10.68;;;12.50;99.90;;;;;;6153503;23;20057;-76